Terminal Aerodrome Forecast
Issued by NWS

Home | Current Version | Previous Version | Text Only | Print | Product List | Glossary On
Versions: 1 2 3 4 5 6 7 8 9 10 11 12 13 14 15 16 17 18 19 20 21 22
000
FTUS43 KDLH 221740
TAFBRD
TAF
KBRD 221740Z 2218/2318 29006KT P6SM VCSH SCT028 BKN035 OVC060
     FM222200 31008KT P6SM VCSH OVC050
     FM230600 33004KT P6SM VCSH BKN029
     FM231200 35005KT P6SM VCSH OVC008
     FM231500 01007KT P6SM VCSH OVC015=

USA.gov is the U.S. government's official web portal to all federal, state and local government web resources and services.